Time;durP1;ratioP1;P1;durP2;ratioP2;P2;SDS_P1;SDS_P2;PMS_P1;PMS_P2;Temp;Humidity;BMP_temperature;BMP_pressure;BME280_temperature;BME280_humidity;BME280_pressure;Samples;Min_cycle;Max_cycle;Signal;HPM_P1;HPM_P2
2022/11/23 00:00:17;;;;;;;3.03;1.58;;;;;;;19.91;59.88;97032.50;2071029;28;20500;-46
2022/11/23 00:01:20;;;;;;;;;;;;;;;19.81;60.04;97028.63;2072398;28;20057;-49
2022/11/23 00:02:20;;;;;;;2.80;1.23;;;;;;;19.85;59.73;97035.13;2069278;28;20363;-46
2022/11/23 00:03:22;;;;;;;;;;;;;;;19.80;60.18;97036.94;2071369;28;20055;-48
2022/11/23 00:04:24;;;;;;;2.25;1.45;;;;;;;19.83;59.70;97034.53;2069929;28;20599;-45
2022/11/23 00:05:26;;;;;;;3.20;1.55;;;;;;;19.88;59.75;97033.00;2070096;28;20160;-51
2022/11/23 00:06:28;;;;;;;2.95;1.85;;;;;;;19.90;59.84;97041.63;2070666;28;20489;-45
2022/11/23 00:07:29;;;;;;;1.70;1.60;;;;;;;19.91;59.76;97035.19;2067207;28;20050;-49
2022/11/23 00:08:30;;;;;;;;;;;;;;;19.81;59.92;97039.38;2072185;28;20488;-50
2022/11/23 00:09:34;;;;;;;2.53;1.45;;;;;;;19.84;59.92;97041.56;2070408;28;20648;-48
2022/11/23 00:10:34;;;;;;;2.10;1.70;;;;;;;19.86;59.52;97031.38;2074744;28;20049;-46
2022/11/23 00:11:36;;;;;;;;;;;;;;;19.75;59.91;97037.69;2069481;28;20060;-48
2022/11/23 00:12:37;;;;;;;2.42;1.73;;;;;;;19.78;60.12;97042.56;2069707;28;20332;-49
2022/11/23 00:13:39;;;;;;;2.00;1.80;;;;;;;19.84;59.90;97043.44;2070119;28;20392;-49
2022/11/23 00:14:40;;;;;;;2.53;1.30;;;;;;;19.84;59.86;97038.06;2070219;28;20945;-47
2022/11/23 00:15:42;;;;;;;;;;;;;;;19.73;60.00;97039.81;2070294;28;20113;-47
2022/11/23 00:16:43;;;;;;;;;;;;;;;19.64;60.26;97041.28;2076288;28;20301;-46
2022/11/23 00:17:45;;;;;;;;;;;;;;;19.61;60.63;97042.59;2075874;28;19955;-48
2022/11/23 00:18:50;;;;;;;2.70;1.50;;;;;;;19.68;60.23;97039.75;2069580;28;19929;-45
2022/11/23 00:19:50;;;;;;;2.28;1.50;;;;;;;19.72;59.84;97043.56;2070451;28;20069;-47
2022/11/23 00:20:52;;;;;;;;;;;;;;;19.64;60.43;97041.28;2068962;28;20278;-49
2022/11/23 00:21:53;;;;;;;1.75;1.60;;;;;;;19.70;60.01;97042.19;2072289;28;19935;-46
2022/11/23 00:22:54;;;;;;;;;;;;;;;19.61;60.38;97039.91;2071053;28;20051;-52
2022/11/23 00:23:55;;;;;;;2.58;1.23;;;;;;;19.66;60.02;97044.56;2071557;28;19929;-50
2022/11/23 00:24:59;;;;;;;3.17;1.30;;;;;;;19.73;59.83;97044.38;2068861;28;20075;-48
2022/11/23 00:26:00;;;;;;;2.28;1.67;;;;;;;19.73;59.61;97039.81;2073792;28;20060;-51
2022/11/23 00:27:02;;;;;;;2.75;1.38;;;;;;;19.74;59.94;97046.81;2071013;28;20687;-47
2022/11/23 00:28:03;;;;;;;2.15;1.95;;;;;;;19.74;59.77;97049.50;2071898;28;20080;-45
2022/11/23 00:29:05;;;;;;;2.22;1.90;;;;;;;19.77;59.65;97049.00;2069551;28;21149;-48
2022/11/23 00:30:07;;;;;;;2.63;1.92;;;;;;;19.77;59.63;97049.00;2069963;28;20078;-48
2022/11/23 00:31:11;;;;;;;1.70;1.23;;;;;;;19.76;59.84;97046.56;2068946;28;20053;-48
2022/11/23 00:32:11;;;;;;;2.28;1.40;;;;;;;19.74;59.54;97054.88;2069323;28;20064;-48
2022/11/23 00:33:13;;;;;;;;;;;;;;;19.62;60.13;97046.91;2071216;28;20049;-50
2022/11/23 00:34:15;;;;;;;1.90;1.80;;;;;;;19.64;59.88;97038.59;2072197;28;20212;-47
2022/11/23 00:35:16;;;;;;;2.72;2.03;;;;;;;19.66;60.09;97044.56;2069248;28;20559;-51
2022/11/23 00:36:18;;;;;;;1.98;1.20;;;;;;;19.67;59.95;97042.66;2071318;28;20638;-45
2022/11/23 00:37:20;;;;;;;1.83;1.35;;;;;;;19.69;59.68;97037.88;2071223;28;20056;-46
2022/11/23 00:38:21;;;;;;;1.90;1.27;;;;;;;19.67;59.74;97038.13;2077106;28;20049;-46
2022/11/23 00:39:22;;;;;;;;;;;;;;;19.55;60.34;97042.75;2080635;28;20070;-46
2022/11/23 00:40:25;;;;;;;1.95;1.50;;;;;;;19.58;59.96;97042.25;2076410;28;19998;-49
2022/11/23 00:41:27;;;;;;;2.30;1.20;;;;;;;19.59;60.05;97049.28;2074273;28;20481;-48
2022/11/23 00:42:28;;;;;;;3.30;1.63;;;;;;;19.60;59.87;97043.63;2071665;28;20049;-50
2022/11/23 00:43:30;;;;;;;;;;;;;;;19.50;60.36;97048.06;2071295;28;20111;-50
2022/11/23 00:44:32;;;;;;;1.98;1.42;;;;;;;19.53;60.24;97051.09;2071642;28;19928;-46
2022/11/23 00:45:33;;;;;;;1.83;1.48;;;;;;;19.54;60.12;97049.22;2071432;28;20037;-49
2022/11/23 00:46:34;;;;;;;;;;;;;;;19.45;60.41;97050.72;2072004;28;20048;-50
2022/11/23 00:47:35;;;;;;;3.50;1.88;;;;;;;19.47;60.27;97044.00;2069856;28;19933;-47
2022/11/23 00:48:37;;;;;;;;;;;;;;;19.39;60.72;97053.31;2070911;28;20467;-48
2022/11/23 00:49:37;;;;;;;;;;;;;;;19.32;60.85;97051.84;2073337;28;19929;-49
2022/11/23 00:50:39;;;;;;;2.17;1.30;;;;;;;19.39;60.54;97055.19;2070921;28;19928;-49
2022/11/23 00:51:40;;;;;;;2.03;1.20;;;;;;;19.49;60.09;97051.81;2071430;28;20403;-49
2022/11/23 00:52:41;;;;;;;;;;;;;;;19.36;60.38;97045.75;2072390;28;20095;-48
2022/11/23 00:53:42;;;;;;;2.13;1.38;;;;;;;19.40;60.51;97049.56;2071688;28;19964;-45
2022/11/23 00:54:44;;;;;;;3.00;1.42;;;;;;;19.42;60.31;97052.81;2068936;28;20135;-48
2022/11/23 00:55:51;;;;;;;2.88;1.60;;;;;;;19.46;60.08;97053.13;2071745;28;20909;-49
2022/11/23 00:56:53;;;;;;;2.25;1.70;;;;;;;19.48;60.32;97052.91;2075371;28;20618;-47
2022/11/23 00:57:54;;;;;;;2.08;1.55;;;;;;;19.48;59.92;97051.00;2071865;28;20057;-49
2022/11/23 00:58:56;;;;;;;;;;;;;;;19.36;60.28;97051.13;2073498;28;21558;-49
2022/11/23 00:59:57;;;;;;;1.50;1.27;;;;;;;19.40;60.49;97059.50;2071527;28;21653;-48
2022/11/23 01:01:03;;;;;;;;;;;;;;;19.30;60.62;97054.78;2072641;28;20127;-48
2022/11/23 01:02:04;;;;;;;2.05;1.48;;;;;;;19.33;60.36;97059.66;2072582;28;21351;-50
2022/11/23 01:03:05;;;;;;;;;;;;;;;19.26;60.66;97059.03;2073039;28;20155;-46
2022/11/23 01:04:07;;;;;;;1.27;1.08;;;;;;;19.31;60.79;97059.09;2070816;28;20021;-47
2022/11/23 01:05:09;;;;;;;1.95;1.38;;;;;;;19.35;60.25;97056.72;2075595;28;20522;-49
2022/11/23 01:06:12;;;;;;;3.78;1.80;;;;;;;19.38;60.51;97061.63;2071301;28;20064;-48
2022/11/23 01:07:14;;;;;;;2.28;1.40;;;;;;;19.40;60.25;97062.19;2071671;28;20512;-46
2022/11/23 01:08:15;;;;;;;2.15;1.50;;;;;;;19.40;60.32;97065.69;2074782;28;20052;-48
2022/11/23 01:09:19;;;;;;;;;;;;;;;19.26;60.46;97063.59;2079839;28;20076;-47
2022/11/23 01:10:19;;;;;;;2.30;1.15;;;;;;;19.30;60.43;97070.09;2079342;28;20016;-47
2022/11/23 01:11:23;;;;;;;;;;;;;;;19.20;60.96;97071.56;2078906;28;20045;-48
2022/11/23 01:12:24;;;;;;;2.67;1.70;;;;;;;19.25;60.82;97068.16;2080316;28;20364;-46
2022/11/23 01:13:25;;;;;;;;;;;;;;;19.15;60.91;97068.00;2073362;28;20113;-47
2022/11/23 01:14:26;;;;;;;2.28;1.27;;;;;;;19.20;60.61;97076.94;2073795;28;19921;-48
2022/11/23 01:15:27;;;;;;;;;;;;;;;19.13;60.77;97070.91;2071195;28;20085;-52
2022/11/23 01:16:31;;;;;;;2.08;1.65;;;;;;;19.19;60.65;97075.34;2073695;28;20822;-47
2022/11/23 01:17:32;;;;;;;1.60;1.30;;;;;;;19.24;60.75;97068.41;2073844;28;20128;-49
2022/11/23 01:18:33;;;;;;;3.03;1.80;;;;;;;19.26;60.60;97074.34;2074733;28;20114;-46
2022/11/23 01:19:35;;;;;;;;;;;;;;;19.15;60.93;97071.50;2073831;28;20041;-49
2022/11/23 01:20:35;;;;;;;2.38;1.50;;;;;;;19.20;60.82;97070.78;2071600;28;19936;-50
2022/11/23 01:21:38;;;;;;;1.25;1.15;;;;;;;19.24;60.24;97076.47;2072393;28;20049;-45
2022/11/23 01:22:38;;;;;;;2.22;1.20;;;;;;;19.26;60.60;97074.34;2072409;28;20162;-48
2022/11/23 01:23:40;;;;;;;;;;;;;;;19.14;60.92;97072.56;2070511;28;20049;-48
2022/11/23 01:24:40;;;;;;;3.08;2.03;;;;;;;19.16;60.67;97080.38;2073203;28;19987;-48
2022/11/23 01:25:42;;;;;;;1.65;1.35;;;;;;;19.20;60.73;97081.50;2070753;28;22248;-47
2022/11/23 01:26:45;;;;;;;2.28;1.77;;;;;;;19.23;60.74;97078.34;2070339;28;20595;-51
2022/11/23 01:27:46;;;;;;;3.13;1.40;;;;;;;19.23;60.25;97075.66;2071814;28;20469;-49
2022/11/23 01:28:48;;;;;;;1.58;1.45;;;;;;;19.24;60.59;97071.09;2072878;28;20041;-46
2022/11/23 01:29:49;;;;;;;2.15;1.55;;;;;;;19.24;60.24;97079.94;2072235;28;20072;-47
2022/11/23 01:30:50;;;;;;;3.13;1.92;;;;;;;19.23;60.11;97078.34;2070162;28;20061;-47
2022/11/23 01:31:52;;;;;;;;;;;;;;;19.09;60.83;97079.72;2073615;28;20661;-46
2022/11/23 01:32:52;;;;;;;2.38;1.45;;;;;;;19.12;60.84;97084.63;2071980;28;20266;-48
2022/11/23 01:33:55;;;;;;;;;;;;;;;19.02;61.05;97085.25;2072100;28;20142;-46
2022/11/23 01:34:55;;;;;;;2.08;1.77;;;;;;;19.09;60.66;97093.16;2070203;28;19921;-49
2022/11/23 01:35:57;;;;;;;;;;;;;;;18.98;60.77;97093.00;2074227;28;20159;-46
2022/11/23 01:36:58;;;;;;;2.35;1.40;;;;;;;19.04;60.82;97093.88;2077828;28;20969;-47
2022/11/23 01:38:00;;;;;;;3.25;1.50;;;;;;;19.07;60.59;97090.72;2078504;28;20064;-47
2022/11/23 01:39:01;;;;;;;2.45;1.77;;;;;;;19.11;60.72;97094.56;2079998;28;20052;-46
2022/11/23 01:40:04;;;;;;;1.67;1.23;;;;;;;19.13;60.39;97092.41;2076815;28;20473;-49
2022/11/23 01:41:06;;;;;;;2.47;1.77;;;;;;;19.15;60.70;97093.00;2077853;28;20060;-49
2022/11/23 01:42:09;;;;;;;2.10;1.45;;;;;;;19.15;60.33;97103.75;2078816;28;20053;-47
2022/11/23 01:43:14;;;;;;;3.63;1.60;;;;;;;19.16;60.50;97108.03;2078379;28;20057;-50
2022/11/23 01:44:24;;;;;;;2.50;2.00;;;;;;;19.12;60.32;97116.88;2079536;28;20049;-47
2022/11/23 01:45:34;;;;;;;1.80;1.70;;;;;;;19.10;60.68;97110.91;2077198;28;20049;-47
2022/11/23 01:46:36;;;;;;;2.58;1.88;;;;;;;19.08;60.48;97118.38;2076422;28;20383;-47
2022/11/23 01:47:37;;;;;;;1.23;1.10;;;;;;;19.07;60.41;97117.56;2076331;28;20124;-46
2022/11/23 01:48:40;;;;;;;;;;;;;;;18.96;60.88;97121.16;2079716;28;20086;-47
2022/11/23 01:49:44;;;;;;;1.73;1.20;;;;;;;19.01;60.68;97125.81;2078190;28;19932;-47
2022/11/23 01:50:49;;;;;;;2.45;1.42;;;;;;;19.04;60.77;97128.81;2073176;28;20107;-47
2022/11/23 01:51:52;;;;;;;2.47;1.67;;;;;;;19.04;60.47;97126.13;2072899;28;20049;-48
2022/11/23 01:52:54;;;;;;;2.22;1.55;;;;;;;19.05;60.52;97126.94;2068885;28;20056;-47
2022/11/23 01:53:59;;;;;;;1.85;1.55;;;;;;;19.07;60.78;97130.22;2072356;28;20049;-49
2022/11/23 01:55:00;;;;;;;1.58;1.25;;;;;;;19.05;60.39;97132.31;2070560;28;20049;-50
2022/11/23 01:56:04;;;;;;;;;;;;;;;18.92;60.79;97133.47;2070730;28;20076;-48
2022/11/23 01:57:09;;;;;;;1.85;1.40;;;;;;;18.96;60.76;97130.03;2068751;28;19928;-48
2022/11/23 01:58:14;;;;;;;1.85;1.20;;;;;;;18.99;60.76;97134.09;2072844;28;20068;-47
2022/11/23 01:59:18;;;;;;;2.47;1.23;;;;;;;19.00;60.59;97129.53;2072487;28;20118;-49
2022/11/23 02:00:19;;;;;;;2.28;1.52;;;;;;;19.01;60.75;97136.56;2072790;28;20104;-49
2022/11/23 02:01:20;;;;;;;1.75;1.42;;;;;;;19.01;60.46;97136.56;2069951;28;20060;-48
2022/11/23 02:02:22;;;;;;;;;;;;;;;18.88;60.79;97143.84;2072614;28;23691;-50
2022/11/23 02:03:22;;;;;;;;;;;;;;;18.80;60.96;97138.88;2069984;28;19925;-46
2022/11/23 02:04:29;;;;;;;2.03;1.43;;;;;;;18.86;61.12;97137.91;2069333;28;20012;-45
2022/11/23 02:05:34;;;;;;;2.33;1.35;;;;;;;18.89;61.00;97137.44;2070842;28;20057;-47
2022/11/23 02:06:37;;;;;;;3.30;1.92;;;;;;;18.92;61.01;97138.81;2071094;28;20056;-49
2022/11/23 02:07:38;;;;;;;2.15;1.20;;;;;;;18.93;60.62;97129.69;2070601;28;22119;-50
2022/11/23 02:08:41;;;;;;;1.65;1.25;;;;;;;18.93;60.57;97138.56;2069236;28;20056;-47
2022/11/23 02:09:43;;;;;;;2.80;1.40;;;;;;;18.95;60.86;97139.16;2071683;28;20064;-47
2022/11/23 02:10:46;;;;;;;1.90;1.27;;;;;;;18.94;60.62;97144.75;2069217;28;20254;-49
2022/11/23 02:11:47;;;;;;;2.90;1.42;;;;;;;18.93;60.53;97141.25;2070107;28;20076;-45
2022/11/23 02:12:50;;;;;;;;;;;;;;;18.81;60.96;97143.19;2072145;28;20457;-47
2022/11/23 02:13:51;;;;;;;1.50;1.00;;;;;;;18.84;61.02;97142.72;2070800;28;19932;-49
2022/11/23 02:14:52;;;;;;;;;;;;;;;18.76;60.85;97143.09;2073089;28;20168;-49
2022/11/23 02:15:55;;;;;;;2.30;1.13;;;;;;;18.81;60.92;97145.88;2071904;28;19924;-49
2022/11/23 02:16:58;;;;;;;2.42;1.80;;;;;;;18.85;60.80;97144.34;2069611;28;20144;-47
2022/11/23 02:18:03;;;;;;;2.28;1.35;;;;;;;18.88;60.86;97146.53;2061776;28;20108;-45
2022/11/23 02:19:12;;;;;;;1.67;1.30;;;;;;;18.88;60.86;97148.41;2069229;28;20149;-49
2022/11/23 02:20:14;;;;;;;2.25;1.38;;;;;;;18.87;61.00;97147.59;2070687;28;20052;-47
2022/11/23 02:21:16;;;;;;;1.63;1.20;;;;;;;18.87;60.62;97147.59;2070861;28;20052;-51
2022/11/23 02:22:25;;;;;;;1.88;1.52;;;;;;;18.88;60.80;97143.03;2070883;28;21248;-48
2022/11/23 02:23:39;;;;;;;1.65;1.30;;;;;;;18.86;60.59;97147.81;2071011;28;20060;-48
2022/11/23 02:24:46;;;;;;;1.40;1.30;;;;;;;18.84;60.88;97142.72;2070008;28;20163;-51
2022/11/23 02:26:00;;;;;;;3.10;1.60;;;;;;;18.81;60.69;97143.19;2069910;28;20057;-52
2022/11/23 02:27:02;;;;;;;2.80;1.98;;;;;;;18.83;61.02;97153.69;2070969;28;20044;-52
2022/11/23 02:28:04;;;;;;;1.83;1.55;;;;;;;18.81;60.94;97159.31;2071086;28;20933;-47
2022/11/23 02:29:11;;;;;;;3.40;1.30;;;;;;;18.83;61.01;97161.75;2070342;28;20049;-51
2022/11/23 02:30:12;;;;;;;2.42;1.38;;;;;;;18.82;60.83;97162.81;2074976;28;20073;-49
2022/11/23 02:31:14;;;;;;;;;;;;;;;18.68;60.97;97163.06;2070971;28;20064;-51
2022/11/23 02:32:17;;;;;;;;;;;;;;;18.59;61.21;97163.69;2071558;28;19936;-47
2022/11/23 02:33:19;;;;;;;1.20;1.10;;;;;;;18.70;61.13;97162.84;2070248;28;19951;-50
2022/11/23 02:34:21;;;;;;;2.05;1.55;;;;;;;18.72;61.02;97161.53;2070699;28;20119;-47
2022/11/23 02:35:22;;;;;;;2.75;1.42;;;;;;;18.74;60.80;97164.00;2069760;28;20041;-50
2022/11/23 02:36:35;;;;;;;1.67;1.25;;;;;;;18.74;60.89;97158.63;2070131;28;20106;-52
2022/11/23 02:37:37;;;;;;;1.10;1.00;;;;;;;18.72;60.84;97158.84;2072775;28;20075;-51
2022/11/23 02:38:37;;;;;;;1.70;1.50;;;;;;;18.74;60.93;97164.81;2077565;28;20140;-48
2022/11/23 02:39:43;;;;;;;;;;;;;;;18.63;61.08;97167.53;2078191;28;20097;-49
2022/11/23 02:40:43;;;;;;;2.20;1.40;;;;;;;18.66;61.12;97164.34;2077241;28;19966;-49
2022/11/23 02:41:48;;;;;;;;;;;;;;;18.54;61.34;97169.78;2076163;28;20112;-46
2022/11/23 02:42:49;;;;;;;1.60;1.33;;;;;;;18.61;61.21;97162.41;2074100;28;19977;-51
2022/11/23 02:43:54;;;;;;;2.05;1.60;;;;;;;18.65;61.08;97168.09;2065446;28;20079;-47
2022/11/23 02:44:59;;;;;;;2.15;1.38;;;;;;;18.69;61.21;97169.25;2068888;28;20056;-50
2022/11/23 02:46:04;;;;;;;1.77;1.23;;;;;;;18.69;60.84;97169.25;2073664;28;20107;-50
2022/11/23 02:47:06;;;;;;;1.95;1.27;;;;;;;18.70;60.97;97168.22;2072602;28;20111;-51
2022/11/23 02:48:08;;;;;;;1.60;1.42;;;;;;;18.68;61.11;97168.44;2069955;28;20053;-50
2022/11/23 02:49:08;;;;;;;1.77;1.50;;;;;;;18.68;60.75;97173.81;2071944;28;20049;-53
2022/11/23 02:50:10;;;;;;;;;;;;;;;18.56;60.87;97173.03;2067775;28;20234;-50
2022/11/23 02:51:10;;;;;;;;;;;;;;;18.46;61.55;97173.63;2070771;28;19929;-46
2022/11/23 02:52:12;;;;;;;1.77;1.40;;;;;;;18.52;61.26;97178.06;2068806;28;19940;-48
2022/11/23 02:53:13;;;;;;;2.30;1.73;;;;;;;18.58;61.19;97176.28;2070775;28;20055;-49
2022/11/23 02:54:15;;;;;;;;;;;;;;;18.47;61.56;97179.81;2072474;28;20156;-49
2022/11/23 02:55:15;;;;;;;;;;;;;;;18.39;61.94;97183.72;2071937;28;20671;-50
2022/11/23 02:56:17;;;;;;;2.20;1.27;;;;;;;18.47;61.64;97185.19;2074800;28;19927;-49
2022/11/23 02:57:19;;;;;;;3.20;1.45;;;;;;;18.53;61.40;97187.75;2069031;28;20126;-51
2022/11/23 02:58:21;;;;;;;1.70;1.23;;;;;;;18.57;61.31;97190.78;2072136;28;20052;-47
2022/11/23 02:59:22;;;;;;;1.23;1.10;;;;;;;18.59;61.28;97187.88;2073120;28;20795;-49
2022/11/23 03:00:23;;;;;;;;;;;;;;;18.47;61.36;97185.19;2072950;28;20071;-51
2022/11/23 03:01:24;;;;;;;2.00;1.60;;;;;;;18.51;61.22;97186.34;2074821;28;19928;-47
2022/11/23 03:02:26;;;;;;;1.75;1.20;;;;;;;18.55;61.17;97187.50;2069615;28;20555;-48
2022/11/23 03:03:26;;;;;;;3.33;1.58;;;;;;;18.56;60.86;97189.16;2069661;28;21350;-53
2022/11/23 03:04:28;;;;;;;;;;;;;;;18.47;61.42;97193.25;2069556;28;20049;-49
2022/11/23 03:05:29;;;;;;;2.13;1.65;;;;;;;18.49;61.22;97191.16;2069191;28;20031;-52
2022/11/23 03:06:31;;;;;;;1.35;1.23;;;;;;;18.53;61.10;97195.00;2070671;28;20156;-48
2022/11/23 03:07:32;;;;;;;1.58;1.10;;;;;;;18.56;61.02;97193.72;2070812;28;20094;-52
2022/11/23 03:08:33;;;;;;;;;;;;;;;18.43;61.10;97184.84;2070558;28;20114;-50
2022/11/23 03:09:34;;;;;;;;;;;;;;;18.36;61.46;97197.63;2071356;28;20284;-48
2022/11/23 03:10:35;;;;;;;2.33;1.33;;;;;;;18.40;61.67;97203.31;2075584;28;19931;-50
2022/11/23 03:11:36;;;;;;;1.92;1.30;;;;;;;18.45;61.35;97203.44;2070881;28;20049;-51
2022/11/23 03:12:39;;;;;;;;;;;;;;;18.35;61.77;97197.84;2070181;28;20037;-46
2022/11/23 03:13:40;;;;;;;2.35;1.23;;;;;;;18.39;61.54;97202.50;2068957;28;20453;-52
2022/11/23 03:14:41;;;;;;;;;;;;;;;18.32;61.81;97199.13;2069606;28;20080;-53
2022/11/23 03:15:43;;;;;;;1.95;1.45;;;;;;;18.39;61.56;97199.00;2071626;28;20307;-46
2022/11/23 03:16:44;;;;;;;2.15;1.30;;;;;;;18.43;61.50;97200.97;2072028;28;20049;-49
2022/11/23 03:17:45;;;;;;;1.23;1.00;;;;;;;18.44;61.18;97197.25;2068791;28;20053;-51
2022/11/23 03:18:46;;;;;;;;;;;;;;;18.36;61.46;97202.97;2074383;28;20431;-48
2022/11/23 03:19:47;;;;;;;1.45;1.33;;;;;;;18.38;61.38;97200.84;2071778;28;24183;-47
2022/11/23 03:20:49;;;;;;;;;;;;;;;18.29;61.68;97200.41;2068294;28;20048;-49
2022/11/23 03:21:50;;;;;;;1.98;1.48;;;;;;;18.37;61.44;97203.78;2070020;28;19929;-47
2022/11/23 03:22:51;;;;;;;;;;;;;;;18.27;61.71;97201.69;2067659;28;20052;-51
2022/11/23 03:23:52;;;;;;;1.80;1.13;;;;;;;18.33;61.61;97203.47;2071102;28;19968;-47
2022/11/23 03:24:53;;;;;;;;;;;;;;;18.25;61.88;97210.00;2068555;28;20123;-48
2022/11/23 03:25:55;;;;;;;;;;;;;;;18.18;62.02;97200.44;2069432;28;19929;-47
2022/11/23 03:26:56;;;;;;;2.85;1.35;;;;;;;18.27;61.67;97202.50;2066731;28;19925;-49
2022/11/23 03:27:59;;;;;;;2.20;1.42;;;;;;;18.33;61.51;97200.78;2066833;28;20045;-49
2022/11/23 03:29:00;;;;;;;2.13;1.25;;;;;;;18.37;61.38;97199.22;2076215;28;20060;-48
2022/11/23 03:30:01;;;;;;;1.63;1.10;;;;;;;18.38;61.41;97192.81;2070152;28;20122;-48
2022/11/23 03:31:03;;;;;;;;;;;;;;;18.27;61.56;97196.31;2068162;28;20475;-49
2022/11/23 03:32:04;;;;;;;1.67;1.10;;;;;;;18.29;61.59;97197.72;2070997;28;19964;-48
2022/11/23 03:33:06;;;;;;;3.05;1.05;;;;;;;18.35;61.40;97204.00;2072049;28;20081;-48
2022/11/23 03:34:07;;;;;;;2.60;1.38;;;;;;;18.36;61.25;97211.03;2070800;28;20098;-53
2022/11/23 03:35:09;;;;;;;1.27;1.00;;;;;;;18.38;61.31;97203.53;2069954;28;20075;-47
2022/11/23 03:36:10;;;;;;;3.88;1.90;;;;;;;18.38;61.12;97202.72;2068918;28;20107;-46
2022/11/23 03:37:12;;;;;;;;;;;;;;;18.24;61.54;97208.34;2071121;28;20654;-47
2022/11/23 03:38:13;;;;;;;1.27;1.13;;;;;;;18.27;61.66;97207.88;2071498;28;19935;-49
2022/11/23 03:39:15;;;;;;;1.88;1.40;;;;;;;18.32;61.44;97212.53;2072311;28;20083;-47
2022/11/23 03:40:15;;;;;;;1.80;1.02;;;;;;;18.35;61.52;97211.25;2070799;28;20049;-49
2022/11/23 03:41:17;;;;;;;;;;;;;;;18.24;61.72;97205.66;2069067;28;20053;-47
2022/11/23 03:42:17;;;;;;;1.95;1.35;;;;;;;18.29;61.44;97211.13;2069536;28;19986;-50
2022/11/23 03:43:21;;;;;;;;;;;;;;;18.18;61.88;97211.16;2072129;28;20561;-50
2022/11/23 03:44:22;;;;;;;2.90;1.23;;;;;;;18.25;61.54;97217.25;2073646;28;19931;-48
2022/11/23 03:45:24;;;;;;;1.30;1.13;;;;;;;18.29;61.31;97216.50;2070570;28;20041;-49
2022/11/23 03:46:25;;;;;;;2.33;1.48;;;;;;;18.34;61.37;97212.31;2067253;28;20692;-45
2022/11/23 03:47:26;;;;;;;;;;;;;;;18.22;61.39;97218.53;2072882;28;20049;-45
2022/11/23 03:48:27;;;;;;;1.85;1.55;;;;;;;18.25;61.42;97219.91;2068655;28;19936;-50
2022/11/23 03:49:28;;;;;;;;;;;;;;;18.18;61.73;97216.53;2070029;28;20141;-50
2022/11/23 03:50:29;;;;;;;2.05;1.13;;;;;;;18.21;61.70;97219.56;2072255;28;19928;-45
2022/11/23 03:51:31;;;;;;;;;;;;;;;18.15;61.89;97220.50;2068238;28;20055;-48
2022/11/23 03:52:31;;;;;;;1.73;1.30;;;;;;;18.19;61.52;97216.31;2070757;28;20426;-46
2022/11/23 03:53:33;;;;;;;;;;;;;;;18.14;61.75;97226.13;2075316;28;20152;-46
2022/11/23 03:54:34;;;;;;;1.70;1.48;;;;;;;18.18;61.60;97224.59;2072980;28;19935;-46
2022/11/23 03:55:35;;;;;;;;;;;;;;;18.13;62.10;97232.53;2067662;28;20160;-51
2022/11/23 03:56:36;;;;;;;1.98;1.20;;;;;;;18.17;61.75;97225.66;2071865;28;19924;-51
2022/11/23 03:57:38;;;;;;;2.05;1.20;;;;;;;18.20;61.71;97227.84;2074381;28;20044;-47
2022/11/23 03:58:40;;;;;;;2.03;1.33;;;;;;;18.25;61.37;97227.97;2077520;28;20040;-48
2022/11/23 03:59:42;;;;;;;2.47;1.30;;;;;;;18.24;61.28;97227.13;2077839;28;20057;-48
2022/11/23 04:00:42;;;;;;;2.03;1.17;;;;;;;18.27;61.46;97233.91;2074041;28;20053;-45
2022/11/23 04:01:44;;;;;;;;;;;;;;;18.15;61.53;97233.91;2077649;28;20045;-46
2022/11/23 04:02:44;;;;;;;1.15;0.88;;;;;;;18.18;61.54;97229.94;2072215;28;19998;-47
2022/11/23 04:03:46;;;;;;;1.45;1.10;;;;;;;18.20;61.58;97233.22;2074221;28;20524;-48
2022/11/23 04:04:48;;;;;;;1.27;1.13;;;;;;;18.22;61.67;97237.31;2068854;28;20115;-47
2022/11/23 04:05:49;;;;;;;1.27;1.05;;;;;;;18.23;61.51;97243.50;2070690;28;20049;-48
2022/11/23 04:06:50;;;;;;;;;;;;;;;18.14;61.78;97234.16;2071283;28;20460;-50
2022/11/23 04:07:51;;;;;;;3.00;1.55;;;;;;;18.17;61.54;97244.44;2069624;28;19936;-45
2022/11/23 04:08:52;;;;;;;;;;;;;;;18.05;61.99;97247.09;2071691;28;20762;-49
2022/11/23 04:09:53;;;;;;;3.13;1.55;;;;;;;18.10;61.64;97239.16;2073035;28;19929;-45
2022/11/23 04:10:56;;;;;;;;;;;;;;;18.02;62.00;97243.00;2069178;28;20106;-49
2022/11/23 04:11:57;;;;;;;2.75;1.50;;;;;;;18.10;61.76;97236.47;2073731;28;19936;-46
2022/11/23 04:12:58;;;;;;;;;;;;;;;17.99;61.75;97235.44;2072303;28;20132;-49
2022/11/23 04:14:00;;;;;;;1.08;0.90;;;;;;;18.08;61.62;97236.72;2071239;28;19928;-49
2022/11/23 04:15:02;;;;;;;1.23;1.13;;;;;;;18.12;61.53;97234.38;2071757;28;20072;-44
2022/11/23 04:16:06;;;;;;;1.02;0.85;;;;;;;18.15;61.58;97239.28;2071634;28;20065;-48
2022/11/23 04:17:07;;;;;;;2.60;1.25;;;;;;;18.18;61.25;97238.81;2073629;28;20045;-48
2022/11/23 04:18:08;;;;;;;1.30;1.20;;;;;;;18.19;61.28;97236.94;2070871;28;20748;-48
2022/11/23 04:19:10;;;;;;;;;;;;;;;18.08;61.47;97234.06;2074402;28;20067;-51
2022/11/23 04:20:12;;;;;;;1.08;1.02;;;;;;;18.12;61.64;97236.25;2070290;28;19925;-48
2022/11/23 04:21:13;;;;;;;1.35;1.25;;;;;;;18.12;61.40;97228.22;2073715;28;20154;-48
2022/11/23 04:22:14;;;;;;;1.27;1.17;;;;;;;18.17;61.31;97225.66;2069761;28;20059;-47
2022/11/23 04:23:16;;;;;;;;;;;;;;;18.05;61.70;97225.63;2073981;28;20045;-49
2022/11/23 04:24:16;;;;;;;0.88;0.80;;;;;;;18.07;61.72;97226.22;2069258;28;19929;-51
2022/11/23 04:25:18;;;;;;;;;;;;;;;17.96;61.94;97227.84;2074717;28;20045;-48
2022/11/23 04:26:19;;;;;;;2.80;1.67;;;;;;;18.03;61.68;97231.25;2071017;28;20285;-52
2022/11/23 04:27:20;;;;;;;;;;;;;;;17.96;61.88;97229.72;2068980;28;20050;-46
2022/11/23 04:28:21;;;;;;;1.23;0.90;;;;;;;18.02;61.75;97232.28;2074720;28;20426;-50
2022/11/23 04:29:24;;;;;;;;;;;;;;;17.94;61.90;97234.50;2073309;28;20048;-49
2022/11/23 04:30:25;;;;;;;1.75;1.20;;;;;;;18.02;61.71;97228.78;2068788;28;20586;-48
2022/11/23 04:31:26;;;;;;;;;;;;;;;17.93;62.09;97224.81;2073176;28;20050;-45
2022/11/23 04:32:27;;;;;;;1.65;1.35;;;;;;;17.99;61.76;97224.69;2071139;28;20338;-48
2022/11/23 04:33:30;;;;;;;;;;;;;;;17.94;62.03;97229.13;2069232;28;20105;-48
2022/11/23 04:34:31;;;;;;;1.65;1.00;;;;;;;18.01;61.62;97230.66;2073180;28;20019;-49
2022/11/23 04:35:34;;;;;;;;;;;;;;;17.93;61.83;97236.38;2072915;28;20053;-49
2022/11/23 04:36:35;;;;;;;1.30;1.13;;;;;;;18.01;61.58;97235.22;2069342;28;19929;-49
2022/11/23 04:37:36;;;;;;;;;;;;;;;17.96;61.71;97235.09;2073789;28;20140;-48
2022/11/23 04:38:37;;;;;;;1.00;0.80;;;;;;;17.99;61.79;97235.44;2077420;28;20202;-45
2022/11/23 04:39:38;;;;;;;1.45;1.13;;;;;;;18.04;61.53;97234.75;2078843;28;20183;-49
2022/11/23 04:40:39;;;;;;;1.50;1.15;;;;;;;18.04;61.45;97235.56;2077865;28;20521;-50
2022/11/23 04:41:41;;;;;;;;;;;;;;;17.93;61.69;97238.25;2077337;28;20120;-49
2022/11/23 04:42:41;;;;;;;1.88;1.17;;;;;;;17.99;61.55;97239.97;2072723;28;20372;-45
2022/11/23 04:43:43;;;;;;;;;;;;;;;17.90;61.72;97236.84;2070521;28;20053;-45
2022/11/23 04:44:45;;;;;;;2.05;1.23;;;;;;;17.95;61.66;97236.97;2073326;28;19927;-50
2022/11/23 04:45:47;;;;;;;1.35;1.02;;;;;;;17.98;61.73;97235.69;2071357;28;20508;-49
2022/11/23 04:46:49;;;;;;;2.13;1.17;;;;;;;17.99;61.59;97235.44;2071864;28;20056;-48
2022/11/23 04:47:50;;;;;;;1.23;1.08;;;;;;;18.03;61.42;97236.63;2072501;28;20073;-49
2022/11/23 04:48:51;;;;;;;1.38;0.95;;;;;;;18.03;61.43;97236.63;2070403;28;20740;-47
2022/11/23 04:49:53;;;;;;;;;;;;;;;17.91;61.72;97230.41;2073119;28;20138;-48
2022/11/23 04:50:54;;;;;;;1.55;1.15;;;;;;;17.95;61.57;97231.59;2069785;28;20009;-49
2022/11/23 04:51:56;;;;;;;1.30;1.00;;;;;;;17.97;61.61;97229.50;2068450;28;20064;-52
2022/11/23 04:52:57;;;;;;;1.30;1.17;;;;;;;18.01;61.44;97230.66;2073707;28;20053;-46
2022/11/23 04:53:58;;;;;;;;;;;;;;;17.89;61.78;97231.72;2071825;28;20377;-47
2022/11/23 04:54:59;;;;;;;1.60;1.30;;;;;;;17.94;61.69;97235.34;2070323;28;19979;-46
2022/11/23 04:56:00;;;;;;;;;;;;;;;17.86;61.64;97230.31;2067635;28;20061;-45
2022/11/23 04:57:01;;;;;;;1.52;0.70;;;;;;;17.91;61.67;97235.78;2075277;28;20011;-46
2022/11/23 04:58:03;;;;;;;;;;;;;;;17.82;61.91;97229.94;2080437;28;20053;-46
2022/11/23 04:59:03;;;;;;;1.50;1.23;;;;;;;17.88;61.73;97236.25;2075239;28;19936;-44
2022/11/23 05:00:07;;;;;;;;;;;;;;;17.78;61.89;97231.47;2074443;28;20519;-45